createdAt,value
2023-04-19T00:02:22.497Z,102061.00
2023-04-19T00:04:53.473Z,102058.00
2023-04-19T00:07:26.553Z,102060.00
2023-04-19T00:09:56.587Z,102053.00
2023-04-19T00:12:26.639Z,102055.00
2023-04-19T00:14:56.673Z,102048.00
2023-04-19T00:17:27.545Z,102045.00
2023-04-19T00:19:57.872Z,102048.00
2023-04-19T00:22:30.577Z,102047.00
2023-04-19T00:25:00.859Z,102039.00
2023-04-19T00:27:31.045Z,102043.00
2023-04-19T00:30:01.300Z,102038.00
2023-04-19T00:32:31.347Z,102033.00
2023-04-19T00:35:01.382Z,102044.00
2023-04-19T00:37:33.989Z,102039.00
2023-04-19T00:40:05.538Z,102042.00
2023-04-19T00:42:35.687Z,102045.00
2023-04-19T00:45:05.899Z,102046.00
2023-04-19T00:47:36.358Z,102049.00
2023-04-19T00:50:07.627Z,102044.00
2023-04-19T00:52:40.263Z,102036.00
2023-04-19T00:55:11.596Z,102045.00
2023-04-19T00:57:41.670Z,102045.00
2023-04-19T01:00:13.548Z,102044.00
2023-04-19T01:02:43.682Z,102037.00
2023-04-19T01:05:13.909Z,102048.00
2023-04-19T01:07:46.678Z,102042.00
2023-04-19T01:10:17.382Z,102041.00
2023-04-19T01:12:47.565Z,102040.00
2023-04-19T01:15:17.502Z,102045.00
2023-04-19T01:17:47.611Z,102040.00
2023-04-19T01:20:17.780Z,102041.00
2023-04-19T01:22:50.483Z,102039.00
2023-04-19T01:25:20.515Z,102037.00
2023-04-19T01:27:50.510Z,102040.00
2023-04-19T01:30:20.514Z,102042.00
2023-04-19T01:32:50.650Z,102025.00
2023-04-19T01:35:21.795Z,102025.00
2023-04-19T01:37:56.417Z,102032.00
2023-04-19T01:40:27.273Z,102035.00
2023-04-19T01:42:57.201Z,102030.00
2023-04-19T01:45:27.179Z,102030.00
2023-04-19T01:47:57.212Z,102016.00
2023-04-19T01:50:27.284Z,102017.00
2023-04-19T01:53:00.438Z,102025.00
2023-04-19T01:55:30.553Z,102013.00
2023-04-19T01:58:00.557Z,102011.00
2023-04-19T02:00:30.614Z,102010.00
2023-04-19T02:03:00.715Z,102015.00
2023-04-19T02:05:30.795Z,102004.00
2023-04-19T02:08:04.129Z,102002.00
2023-04-19T02:10:34.296Z,102005.00
2023-04-19T02:13:04.242Z,102002.00
2023-04-19T02:15:34.386Z,102008.00
2023-04-19T02:18:06.722Z,102001.00
2023-04-19T02:20:37.158Z,102003.00
2023-04-19T02:23:09.759Z,101992.00
2023-04-19T02:25:39.760Z,101989.00
2023-04-19T02:28:09.773Z,101985.00
2023-04-19T02:30:40.421Z,101980.00
2023-04-19T02:33:10.788Z,101989.00
2023-04-19T02:35:41.122Z,101980.00
2023-04-19T02:38:13.692Z,101984.00
2023-04-19T02:40:43.651Z,101979.00
2023-04-19T02:43:13.752Z,101984.00
2023-04-19T02:45:43.788Z,101972.00
2023-04-19T02:48:13.889Z,101985.00
2023-04-19T02:50:43.913Z,101964.00
2023-04-19T02:53:16.674Z,101963.00
2023-04-19T02:55:46.644Z,101959.00
2023-04-19T02:58:16.596Z,101967.00
2023-04-19T03:00:46.645Z,101971.00
2023-04-19T03:03:16.724Z,101968.00
2023-04-19T03:05:46.811Z,101966.00
2023-04-19T03:08:19.371Z,101965.00
2023-04-19T03:10:49.422Z,101958.00
2023-04-19T03:13:19.674Z,101956.00
2023-04-19T03:15:50.928Z,101956.00
2023-04-19T03:18:21.170Z,101960.00
2023-04-19T03:20:51.164Z,101955.00
2023-04-19T03:23:24.817Z,101957.00
2023-04-19T03:25:55.084Z,101948.00
2023-04-19T03:28:25.660Z,101947.00
2023-04-19T03:31:01.665Z,101944.00
2023-04-19T03:33:31.896Z,101933.00
2023-04-19T03:36:02.208Z,101937.00
2023-04-19T03:38:35.120Z,101931.00
2023-04-19T03:41:05.203Z,101940.00
2023-04-19T03:43:35.511Z,101921.00
2023-04-19T03:46:05.789Z,101921.00
2023-04-19T03:48:35.899Z,101923.00
2023-04-19T03:51:06.593Z,101918.00
2023-04-19T03:53:40.406Z,101916.00
2023-04-19T03:56:11.268Z,101915.00
2023-04-19T03:58:42.792Z,101911.00
2023-04-19T04:01:21.839Z,101910.00
2023-04-19T04:03:52.461Z,101912.00
2023-04-19T04:06:22.952Z,101909.00
2023-04-19T04:08:56.037Z,101919.00
2023-04-19T04:11:26.511Z,101904.00
2023-04-19T04:13:57.430Z,101895.00
2023-04-19T04:16:28.121Z,101901.00
2023-04-19T04:18:58.623Z,101901.00
2023-04-19T04:21:29.092Z,101894.00
2023-04-19T04:24:02.199Z,101904.00
2023-04-19T04:26:34.257Z,101896.00
2023-04-19T04:29:05.410Z,101900.00
2023-04-19T04:31:36.282Z,101903.00
2023-04-19T04:34:06.737Z,101893.00
2023-04-19T04:36:37.805Z,101898.00
2023-04-19T04:39:12.311Z,101903.00
2023-04-19T04:41:42.693Z,101906.00
2023-04-19T04:44:13.218Z,101882.00
2023-04-19T04:46:43.626Z,101886.00
2023-04-19T04:49:14.137Z,101887.00
2023-04-19T04:51:44.603Z,101889.00
2023-04-19T04:54:17.872Z,101871.00
2023-04-19T04:56:48.462Z,101869.00
2023-04-19T04:59:19.058Z,101875.00
2023-04-19T05:01:49.568Z,101862.00
2023-04-19T05:04:20.225Z,101878.00
2023-04-19T05:06:50.753Z,101869.00
2023-04-19T05:09:23.713Z,101870.00
2023-04-19T05:11:54.587Z,101861.00
2023-04-19T05:14:25.164Z,101862.00
2023-04-19T05:16:55.604Z,101863.00
2023-04-19T05:19:25.844Z,101870.00
2023-04-19T05:21:56.067Z,101859.00
2023-04-19T05:24:28.921Z,101864.00
2023-04-19T05:26:59.139Z,101857.00
2023-04-19T05:29:29.295Z,101861.00
2023-04-19T05:32:00.661Z,101861.00
2023-04-19T05:34:30.998Z,101847.00
2023-04-19T05:37:01.350Z,101851.00
2023-04-19T05:39:34.247Z,101847.00
2023-04-19T05:42:04.717Z,101858.00
2023-04-19T05:44:35.111Z,101856.00
2023-04-19T05:47:05.435Z,101852.00
2023-04-19T05:49:36.193Z,101853.00
2023-04-19T05:52:06.975Z,101848.00
2023-04-19T05:54:39.973Z,101845.00
2023-04-19T05:57:10.352Z,101840.00
2023-04-19T05:59:40.637Z,101840.00
2023-04-19T06:02:11.703Z,101844.00
2023-04-19T06:04:42.570Z,101831.00
2023-04-19T06:07:26.520Z,101833.00
2023-04-19T06:10:03.431Z,101828.00
2023-04-19T06:12:33.860Z,101830.00
2023-04-19T06:15:04.080Z,101824.00
2023-04-19T06:17:34.509Z,101826.00
2023-04-19T06:20:07.095Z,101823.00
2023-04-19T06:22:37.522Z,101826.00
2023-04-19T06:25:11.450Z,101823.00
2023-04-19T06:27:41.830Z,101823.00
2023-04-19T06:30:13.390Z,101822.00
2023-04-19T06:32:43.580Z,101832.00
2023-04-19T06:35:14.951Z,101825.00
2023-04-19T06:37:45.095Z,101823.00
2023-04-19T06:40:17.996Z,101827.00
2023-04-19T06:42:48.230Z,101822.00
2023-04-19T06:45:19.012Z,101819.00
2023-04-19T06:47:49.401Z,101818.00
2023-04-19T06:50:19.623Z,101812.00
2023-04-19T06:52:49.855Z,101807.00
2023-04-19T06:55:22.640Z,101804.00
2023-04-19T06:57:52.844Z,101790.00
2023-04-19T07:00:23.585Z,101803.00
2023-04-19T07:02:54.109Z,101797.00
2023-04-19T07:05:24.822Z,101791.00
2023-04-19T07:07:54.978Z,101792.00
2023-04-19T07:10:27.945Z,101785.00
2023-04-19T07:12:58.180Z,101795.00
2023-04-19T07:15:28.349Z,101791.00
2023-04-19T07:17:58.565Z,101793.00
2023-04-19T07:20:29.354Z,101776.00
2023-04-19T07:22:59.595Z,101778.00
2023-04-19T07:25:32.383Z,101777.00
2023-04-19T07:28:02.563Z,101768.00
2023-04-19T07:30:32.768Z,101767.00
2023-04-19T07:33:04.545Z,101766.00
2023-04-19T07:35:34.765Z,101775.00
2023-04-19T07:38:05.090Z,101768.00
2023-04-19T07:40:37.938Z,101775.00
2023-04-19T07:43:08.072Z,101764.00
2023-04-19T07:45:38.905Z,101765.00
2023-04-19T07:48:09.503Z,101763.00
2023-04-19T07:50:40.862Z,101753.00
2023-04-19T07:53:11.005Z,101746.00
2023-04-19T07:55:43.830Z,101752.00
2023-04-19T07:58:15.409Z,101756.00
2023-04-19T08:00:45.809Z,101753.00
2023-04-19T08:03:16.212Z,101752.00
2023-04-19T08:05:46.789Z,101755.00
2023-04-19T08:08:17.218Z,101748.00
2023-04-19T08:10:50.027Z,101752.00
2023-04-19T08:13:20.222Z,101759.00
2023-04-19T08:16:27.082Z,101759.00
2023-04-19T08:18:40.664Z,101752.00
2023-04-19T08:21:10.967Z,101739.00
2023-04-19T08:23:48.049Z,101741.00
2023-04-19T08:26:22.943Z,101751.00
2023-04-19T08:28:53.158Z,101741.00
2023-04-19T08:31:23.571Z,101749.00
2023-04-19T08:33:53.834Z,101749.00
2023-04-19T08:36:37.027Z,101739.00
2023-04-19T08:39:17.763Z,101756.00
2023-04-19T08:42:06.631Z,101741.00
2023-04-19T08:44:56.233Z,101735.00
2023-04-19T08:47:37.207Z,101731.00
2023-04-19T08:50:28.243Z,101729.00
2023-04-19T08:55:38.282Z,101727.00
2023-04-19T08:58:23.240Z,101714.00
2023-04-19T09:01:01.164Z,101715.00
2023-04-19T09:03:36.578Z,101717.00
2023-04-19T09:06:14.809Z,101719.00
2023-04-19T09:08:44.965Z,101705.00
2023-04-19T09:11:14.956Z,101705.00
2023-04-19T09:13:47.599Z,101707.00
2023-04-19T09:16:27.887Z,101703.00
2023-04-19T09:19:08.587Z,101699.00
2023-04-19T09:21:46.156Z,101705.00
2023-04-19T09:24:16.319Z,101694.00
2023-04-19T09:26:58.430Z,101695.00
2023-04-19T09:29:31.116Z,101687.00
2023-04-19T09:32:02.369Z,101687.00
2023-04-19T09:34:33.370Z,101681.00
2023-04-19T09:37:28.062Z,101680.00
2023-04-19T09:40:25.508Z,101674.00
2023-04-19T09:43:10.653Z,101668.00
2023-04-19T09:45:49.424Z,101677.00
2023-04-19T09:48:19.396Z,101680.00
2023-04-19T09:51:03.165Z,101671.00
2023-04-19T09:53:37.165Z,101689.00
2023-04-19T09:56:07.566Z,101678.00
2023-04-19T09:58:51.080Z,101675.00
2023-04-19T10:01:29.908Z,101682.00
2023-04-19T10:04:10.259Z,101666.00
2023-04-19T10:07:19.364Z,101668.00
2023-04-19T10:09:49.643Z,101659.00
2023-04-19T10:15:02.152Z,101663.00
2023-04-19T10:17:34.919Z,101653.00
2023-04-19T10:20:10.822Z,101646.00
2023-04-19T10:22:41.843Z,101659.00
2023-04-19T10:25:14.308Z,101654.00
2023-04-19T10:27:47.143Z,101649.00
2023-04-19T10:30:21.774Z,101654.00
2023-04-19T10:32:58.250Z,101652.00
2023-04-19T10:35:31.615Z,101654.00
2023-04-19T10:38:13.192Z,101644.00
2023-04-19T10:41:00.986Z,101640.00
2023-04-19T10:43:33.143Z,101639.00
2023-04-19T10:46:04.982Z,101633.00
2023-04-19T10:48:44.266Z,101636.00
2023-04-19T10:51:20.577Z,101630.00
2023-04-19T10:53:59.299Z,101634.00
2023-04-19T10:57:00.869Z,101624.00
2023-04-19T10:59:33.225Z,101630.00
2023-04-19T11:02:05.693Z,101627.00
2023-04-19T11:05:14.627Z,101628.00
2023-04-19T11:07:45.502Z,101624.00
2023-04-19T11:10:15.494Z,101625.00
2023-04-19T11:12:46.798Z,101616.00
2023-04-19T11:15:16.818Z,101600.00
2023-04-19T11:17:47.138Z,101605.00
2023-04-19T11:20:22.033Z,101608.00
2023-04-19T11:22:52.186Z,101605.00
2023-04-19T11:25:23.948Z,101601.00
2023-04-19T11:27:56.237Z,101597.00
2023-04-19T11:30:32.850Z,101597.00
2023-04-19T11:33:02.970Z,101593.00
2023-04-19T11:35:36.151Z,101602.00
2023-04-19T11:38:06.631Z,101597.00
2023-04-19T11:40:37.755Z,101600.00
2023-04-19T11:43:08.012Z,101601.00
2023-04-19T11:45:40.390Z,101595.00
2023-04-19T11:48:16.849Z,101589.00
2023-04-19T11:50:50.248Z,101585.00
2023-04-19T11:53:21.946Z,101589.00
2023-04-19T11:55:54.054Z,101588.00
2023-04-19T11:58:33.671Z,101589.00
2023-04-19T12:01:09.102Z,101590.00
2023-04-19T12:03:44.167Z,101588.00
2023-04-19T12:06:19.496Z,101594.00
2023-04-19T12:08:52.453Z,101601.00
2023-04-19T12:11:26.640Z,101589.00
2023-04-19T12:14:11.768Z,101594.00
2023-04-19T12:16:41.710Z,101594.00
2023-04-19T12:19:16.313Z,101584.00
2023-04-19T12:21:49.158Z,101589.00
2023-04-19T12:24:19.822Z,101580.00
2023-04-19T12:26:57.856Z,101566.00
2023-04-19T12:29:30.232Z,101563.00
2023-04-19T12:32:00.649Z,101557.00
2023-04-19T12:34:31.092Z,101558.00
2023-04-19T12:37:04.517Z,101550.00
2023-04-19T12:39:34.882Z,101548.00
2023-04-19T12:42:06.296Z,101532.00
2023-04-19T12:44:36.813Z,101540.00
2023-04-19T12:47:07.192Z,101526.00
2023-04-19T12:49:38.588Z,101534.00
2023-04-19T12:52:11.948Z,101526.00
2023-04-19T12:54:42.096Z,101521.00
2023-04-19T12:57:12.183Z,101522.00
2023-04-19T12:59:42.217Z,101518.00
2023-04-19T13:02:12.759Z,101506.00
2023-04-19T13:04:43.012Z,101499.00
2023-04-19T13:07:16.125Z,101496.00
2023-04-19T13:09:46.491Z,101485.00
2023-04-19T13:12:16.643Z,101481.00
2023-04-19T13:14:50.299Z,101487.00
2023-04-19T13:17:20.753Z,101473.00
2023-04-19T13:19:51.294Z,101488.00
2023-04-19T13:22:24.280Z,101485.00
2023-04-19T13:24:54.526Z,101492.00
2023-04-19T13:27:24.765Z,101488.00
2023-04-19T13:29:54.995Z,101488.00
2023-04-19T13:32:25.349Z,101491.00
2023-04-19T13:34:55.784Z,101486.00
2023-04-19T13:37:28.620Z,101482.00
2023-04-19T13:40:10.752Z,101487.00
2023-04-19T13:42:47.867Z,101486.00
2023-04-19T13:45:18.186Z,101494.00
2023-04-19T13:47:49.159Z,101488.00
2023-04-19T13:50:19.262Z,101489.00
2023-04-19T13:52:52.148Z,101472.00
2023-04-19T13:55:22.628Z,101456.00
2023-04-19T13:57:52.965Z,101467.00
2023-04-19T14:00:24.663Z,101468.00
2023-04-19T14:02:55.454Z,101469.00
2023-04-19T14:05:26.014Z,101456.00
2023-04-19T14:07:59.071Z,101465.00
2023-04-19T14:10:29.544Z,101452.00
2023-04-19T14:12:59.831Z,101454.00
2023-04-19T14:15:30.200Z,101438.00
2023-04-19T14:18:00.605Z,101445.00
2023-04-19T14:20:30.678Z,101436.00
2023-04-19T14:23:03.889Z,101437.00
2023-04-19T14:25:34.199Z,101433.00
2023-04-19T14:28:04.499Z,101438.00
2023-04-19T14:30:34.657Z,101437.00
2023-04-19T14:33:04.962Z,101433.00
2023-04-19T14:35:35.670Z,101426.00
2023-04-19T14:38:08.581Z,101431.00
2023-04-19T14:40:38.979Z,101430.00
2023-04-19T14:43:09.263Z,101419.00
2023-04-19T14:45:39.393Z,101417.00
2023-04-19T14:48:09.849Z,101412.00
2023-04-19T14:50:40.214Z,101414.00
2023-04-19T14:53:13.123Z,101415.00
2023-04-19T14:55:43.408Z,101419.00
2023-04-19T14:58:13.682Z,101421.00
2023-04-19T15:00:43.985Z,101427.00
2023-04-19T15:03:14.427Z,101430.00
2023-04-19T15:05:44.829Z,101446.00
2023-04-19T15:10:53.997Z,101456.00
2023-04-19T15:13:24.288Z,101466.00
2023-04-19T15:15:54.639Z,101466.00
2023-04-19T15:18:24.954Z,101459.00
2023-04-19T15:20:55.271Z,101464.00
2023-04-19T15:23:29.151Z,101463.00
2023-04-19T15:25:59.758Z,101468.00
2023-04-19T15:28:30.202Z,101463.00
2023-04-19T15:31:03.296Z,101464.00
2023-04-19T15:33:34.008Z,101461.00
2023-04-19T15:36:04.976Z,101461.00
2023-04-19T15:38:38.037Z,101459.00
2023-04-19T15:41:08.545Z,101444.00
2023-04-19T15:43:38.800Z,101445.00
2023-04-19T15:46:09.312Z,101444.00
2023-04-19T15:48:39.521Z,101440.00
2023-04-19T15:51:10.061Z,101440.00
2023-04-19T15:53:42.856Z,101436.00
2023-04-19T15:56:13.955Z,101441.00
2023-04-19T15:58:44.660Z,101435.00
2023-04-19T16:01:17.040Z,101425.00
2023-04-19T16:03:49.502Z,101423.00
2023-04-19T16:06:20.070Z,101429.00
2023-04-19T16:08:53.596Z,101418.00
2023-04-19T16:11:24.023Z,101411.00
2023-04-19T16:13:54.180Z,101411.00
2023-04-19T16:16:26.889Z,101406.00
2023-04-19T16:18:57.278Z,101411.00
2023-04-19T16:21:28.842Z,101406.00
2023-04-19T16:24:02.473Z,101409.00
2023-04-19T16:26:32.679Z,101399.00
2023-04-19T16:29:03.009Z,101403.00
2023-04-19T16:31:33.383Z,101399.00
2023-04-19T16:34:03.681Z,101402.00
2023-04-19T16:36:34.116Z,101394.00
2023-04-19T16:39:06.967Z,101389.00
2023-04-19T16:41:37.217Z,101400.00
2023-04-19T16:44:07.575Z,101396.00
2023-04-19T16:46:37.697Z,101390.00
2023-04-19T16:49:08.085Z,101392.00
2023-04-19T16:51:38.410Z,101394.00
2023-04-19T16:54:11.201Z,101390.00
2023-04-19T16:56:41.346Z,101389.00
2023-04-19T16:59:11.675Z,101397.00
2023-04-19T17:01:41.970Z,101395.00
2023-04-19T17:04:12.452Z,101390.00
2023-04-19T17:06:42.697Z,101393.00
2023-04-19T17:09:15.890Z,101385.00
2023-04-19T17:11:46.432Z,101385.00
2023-04-19T17:14:16.902Z,101389.00
2023-04-19T17:16:47.467Z,101383.00
2023-04-19T17:19:18.731Z,101386.00
2023-04-19T17:21:49.638Z,101383.00
2023-04-19T17:24:22.458Z,101385.00
2023-04-19T17:26:52.881Z,101387.00
2023-04-19T17:29:23.037Z,101387.00
2023-04-19T17:31:53.194Z,101390.00
2023-04-19T17:34:23.391Z,101386.00
2023-04-19T17:36:53.600Z,101388.00
2023-04-19T17:39:28.161Z,101385.00
2023-04-19T17:41:58.983Z,101389.00
2023-04-19T17:44:29.377Z,101388.00
2023-04-19T17:46:59.774Z,101381.00
2023-04-19T17:49:30.144Z,101384.00
2023-04-19T17:52:00.489Z,101387.00
2023-04-19T17:54:33.373Z,101384.00
2023-04-19T17:57:03.449Z,101384.00
2023-04-19T17:59:33.971Z,101385.00
2023-04-19T18:02:04.413Z,101390.00
2023-04-19T18:04:34.860Z,101392.00
2023-04-19T18:07:05.236Z,101397.00
2023-04-19T18:09:38.068Z,101400.00
2023-04-19T18:12:08.914Z,101407.00
2023-04-19T18:14:39.165Z,101401.00
2023-04-19T18:17:09.454Z,101406.00
2023-04-19T18:19:40.210Z,101403.00
2023-04-19T18:22:10.443Z,101397.00
2023-04-19T18:24:46.227Z,101401.00
2023-04-19T18:27:16.548Z,101406.00
2023-04-19T18:29:46.979Z,101414.00
2023-04-19T18:32:17.205Z,101405.00
2023-04-19T18:34:48.011Z,101407.00
2023-04-19T18:37:20.040Z,101406.00
2023-04-19T18:39:53.020Z,101404.00
2023-04-19T18:42:23.707Z,101409.00
2023-04-19T18:44:54.769Z,101421.00
2023-04-19T18:47:25.212Z,101420.00
2023-04-19T18:50:03.279Z,101415.00
2023-04-19T18:52:35.903Z,101419.00
2023-04-19T18:55:11.668Z,101420.00
2023-04-19T18:57:41.769Z,101428.00
2023-04-19T19:00:13.378Z,101420.00
2023-04-19T19:02:44.695Z,101420.00
2023-04-19T19:05:16.156Z,101422.00
2023-04-19T19:07:46.591Z,101426.00
2023-04-19T19:10:22.434Z,101429.00
2023-04-19T19:12:56.676Z,101430.00
2023-04-19T19:15:27.585Z,101437.00
2023-04-19T19:17:58.016Z,101428.00
2023-04-19T19:20:28.302Z,101426.00
2023-04-19T19:22:58.335Z,101425.00
2023-04-19T19:25:30.961Z,101422.00
2023-04-19T19:30:34.847Z,101427.00
2023-04-19T19:33:05.618Z,101424.00
2023-04-19T19:35:36.164Z,101429.00
2023-04-19T19:38:06.527Z,101426.00
2023-04-19T19:40:59.335Z,101432.00
2023-04-19T19:43:29.072Z,101440.00
2023-04-19T19:45:59.047Z,101436.00
2023-04-19T19:48:30.171Z,101439.00
2023-04-19T19:51:31.437Z,101435.00
2023-04-19T19:53:52.170Z,101444.00
2023-04-19T19:56:25.152Z,101442.00
2023-04-19T20:01:27.310Z,101451.00
2023-04-19T20:03:58.517Z,101455.00
2023-04-19T20:09:02.717Z,101465.00
2023-04-19T20:11:35.785Z,101454.00
2023-04-19T20:14:06.255Z,101452.00
2023-04-19T20:16:37.773Z,101444.00
2023-04-19T20:19:10.161Z,101455.00
2023-04-19T20:21:40.614Z,101450.00
2023-04-19T20:24:11.972Z,101443.00
2023-04-19T20:26:44.769Z,101441.00
2023-04-19T20:29:15.059Z,101442.00
2023-04-19T20:31:45.654Z,101441.00
2023-04-19T20:34:15.835Z,101447.00
2023-04-19T20:36:46.958Z,101450.00
2023-04-19T20:39:19.348Z,101448.00
2023-04-19T20:41:54.066Z,101445.00
2023-04-19T20:44:25.580Z,101450.00
2023-04-19T20:46:56.378Z,101453.00
2023-04-19T20:49:26.560Z,101443.00
2023-04-19T20:51:56.737Z,101454.00
2023-04-19T20:54:26.928Z,101447.00
2023-04-19T20:57:05.033Z,101443.00
2023-04-19T20:59:35.556Z,101441.00
2023-04-19T21:02:06.736Z,101444.00
2023-04-19T21:04:37.148Z,101445.00
2023-04-19T21:07:07.442Z,101446.00
2023-04-19T21:09:38.232Z,101444.00
2023-04-19T21:12:11.121Z,101449.00
2023-04-19T21:14:41.340Z,101450.00
2023-04-19T21:17:11.583Z,101443.00
2023-04-19T21:19:41.720Z,101450.00
2023-04-19T21:22:11.896Z,101453.00
2023-04-19T21:24:42.582Z,101459.00
2023-04-19T21:27:15.406Z,101458.00
2023-04-19T21:29:45.532Z,101457.00
2023-04-19T21:32:15.532Z,101455.00
2023-04-19T21:34:48.265Z,101456.00
2023-04-19T21:37:19.894Z,101456.00
2023-04-19T21:39:50.555Z,101456.00
2023-04-19T21:42:23.543Z,101454.00
2023-04-19T21:44:53.532Z,101460.00
2023-04-19T21:47:23.618Z,101461.00
2023-04-19T21:49:53.739Z,101455.00
2023-04-19T21:52:24.009Z,101468.00
2023-04-19T21:54:54.024Z,101462.00
2023-04-19T21:57:27.259Z,101458.00
2023-04-19T21:59:57.272Z,101475.00
2023-04-19T22:02:27.319Z,101466.00
2023-04-19T22:05:00.412Z,101462.00
2023-04-19T22:07:32.045Z,101467.00
2023-04-19T22:10:03.587Z,101468.00
2023-04-19T22:12:45.119Z,101459.00
2023-04-19T22:15:21.600Z,101455.00
2023-04-19T22:17:52.167Z,101451.00
2023-04-19T22:20:22.235Z,101452.00
2023-04-19T22:22:52.251Z,101450.00
2023-04-19T22:25:22.535Z,101442.00
2023-04-19T22:27:55.382Z,101444.00
2023-04-19T22:30:25.385Z,101455.00
2023-04-19T22:32:55.536Z,101455.00
2023-04-19T22:35:25.588Z,101447.00
2023-04-19T22:37:55.611Z,101447.00
2023-04-19T22:40:25.885Z,101443.00
2023-04-19T22:43:01.192Z,101439.00
2023-04-19T22:45:31.171Z,101437.00
2023-04-19T22:48:01.241Z,101441.00
2023-04-19T22:50:31.245Z,101441.00
2023-04-19T22:53:01.263Z,101445.00
2023-04-19T22:55:31.330Z,101432.00
2023-04-19T22:58:04.977Z,101453.00
2023-04-19T23:00:35.169Z,101454.00
2023-04-19T23:03:05.565Z,101454.00
2023-04-19T23:05:36.329Z,101449.00
2023-04-19T23:08:07.321Z,101443.00
2023-04-19T23:10:38.254Z,101442.00
2023-04-19T23:13:11.768Z,101436.00
2023-04-19T23:15:42.078Z,101443.00
2023-04-19T23:18:12.327Z,101444.00
2023-04-19T23:20:43.184Z,101446.00
2023-04-19T23:23:13.181Z,101431.00
2023-04-19T23:25:43.129Z,101436.00
2023-04-19T23:28:15.676Z,101429.00
2023-04-19T23:30:45.668Z,101435.00
2023-04-19T23:33:15.700Z,101430.00
2023-04-19T23:35:45.807Z,101435.00
2023-04-19T23:38:16.025Z,101427.00
2023-04-19T23:40:46.040Z,101424.00
2023-04-19T23:43:18.658Z,101430.00
2023-04-19T23:45:48.648Z,101411.00
2023-04-19T23:48:18.740Z,101418.00
2023-04-19T23:50:48.704Z,101417.00
2023-04-19T23:53:18.682Z,101410.00
2023-04-19T23:55:48.838Z,101413.00
2023-04-19T23:58:21.707Z,101404.00
